Time;durP1;ratioP1;P1;durP2;ratioP2;P2;SDS_P1;SDS_P2;PMS_P1;PMS_P2;Temp;Humidity;BMP_temperature;BMP_pressure;BME280_temperature;BME280_humidity;BME280_pressure;Samples;Min_cycle;Max_cycle;Signal;HPM_P1;HPM_P2
2022/11/21 00:01:24;;;;;;;181.52;62.47;;;2.90;99.90;;;;;;4726581;30;20045;-77
2022/11/21 00:03:52;;;;;;;170.02;60.92;;;1.20;99.90;;;;;;4729092;30;20052;-77
2022/11/21 00:06:20;;;;;;;159.25;55.45;;;1.30;99.90;;;;;;4749117;30;20047;-76
2022/11/21 00:08:47;;;;;;;176.82;58.55;;;2.20;99.90;;;;;;4718220;30;20525;-76
2022/11/21 00:11:15;;;;;;;164.57;57.15;;;1.20;99.90;;;;;;4732412;30;20079;-76
2022/11/21 00:13:43;;;;;;;164.32;56.45;;;1.20;99.90;;;;;;4729444;30;20086;-76
2022/11/21 00:16:13;;;;;;;151.43;56.50;;;2.30;99.90;;;;;;4726247;30;20140;-76
2022/11/21 00:18:41;;;;;;;159.73;53.75;;;1.20;99.90;;;;;;4745118;30;20687;-77
2022/11/21 00:21:13;;;;;;;149.65;52.28;;;2.80;99.90;;;;;;4744164;30;20059;-77
2022/11/21 00:23:43;;;;;;;155.82;53.35;;;3.10;99.90;;;;;;4745589;30;20049;-77
2022/11/21 00:26:12;;;;;;;152.05;54.75;;;1.30;99.90;;;;;;4731829;30;20077;-77
2022/11/21 00:28:40;;;;;;;156.90;54.83;;;1.20;99.90;;;;;;4733241;30;20048;-77
2022/11/21 00:31:07;;;;;;;153.13;54.42;;;2.10;99.90;;;;;;4733974;30;20737;-77
2022/11/21 00:33:38;;;;;;;166.68;55.42;;;1.70;99.90;;;;;;4733763;30;20094;-77
2022/11/21 00:36:08;;;;;;;166.98;59.00;;;2.20;99.90;;;;;;4748608;30;20044;-77
2022/11/21 00:38:36;;;;;;;177.75;59.10;;;0.70;99.90;;;;;;4735390;30;20052;-77
2022/11/21 00:41:04;;;;;;;178.05;59.28;;;2.10;99.90;;;;;;4743433;30;20051;-77
2022/11/21 00:43:32;;;;;;;176.80;59.10;;;1.00;99.90;;;;;;4743860;30;20456;-77
2022/11/21 00:46:01;;;;;;;170.95;56.67;;;1.50;99.90;;;;;;4731458;30;20462;-77
2022/11/21 00:48:30;;;;;;;176.93;59.70;;;2.30;99.90;;;;;;4732101;30;20052;-77
2022/11/21 00:50:59;;;;;;;194.40;63.53;;;2.30;99.90;;;;;;4732545;30;20421;-77
2022/11/21 00:53:27;;;;;;;195.20;65.60;;;1.90;99.90;;;;;;4745433;30;20055;-77
2022/11/21 00:55:54;;;;;;;211.05;69.07;;;1.90;99.90;;;;;;4749617;30;20421;-77
2022/11/21 00:58:22;;;;;;;201.77;64.72;;;0.80;99.90;;;;;;4722047;30;20148;-77
2022/11/21 01:00:52;;;;;;;186.23;64.35;;;1.70;99.90;;;;;;4746567;30;20114;-76
2022/11/21 01:03:19;;;;;;;186.75;60.38;;;0.90;99.90;;;;;;4716445;30;20052;-77
2022/11/21 01:05:47;;;;;;;187.73;63.40;;;1.50;99.90;;;;;;4731482;30;20052;-77
2022/11/21 01:08:14;;;;;;;205.18;67.07;;;1.00;99.90;;;;;;4734726;30;20052;-77
2022/11/21 01:10:42;;;;;;;205.13;68.53;;;1.70;99.90;;;;;;4732095;30;20052;-77
2022/11/21 01:13:09;;;;;;;191.40;67.32;;;2.40;99.90;;;;;;4743796;30;20063;-77
2022/11/21 01:15:39;;;;;;;201.93;65.85;;;1.00;99.90;;;;;;4736670;30;20496;-77
2022/11/21 01:18:06;;;;;;;176.50;58.80;;;1.40;99.90;;;;;;4748504;30;20044;-77
2022/11/21 01:20:37;;;;;;;160.88;56.53;;;0.90;99.90;;;;;;4742127;30;20513;-76
2022/11/21 01:23:07;;;;;;;188.35;58.28;;;1.80;99.90;;;;;;4746081;30;20562;-77
2022/11/21 01:25:35;;;;;;;172.95;54.33;;;1.20;99.90;;;;;;4737383;30;21034;-77
2022/11/21 01:28:05;;;;;;;173.25;53.97;;;1.10;99.90;;;;;;4735917;30;20063;-77
2022/11/21 01:30:32;;;;;;;150.02;52.72;;;0.80;99.90;;;;;;4748027;30;20044;-77
2022/11/21 01:33:00;;;;;;;152.95;50.97;;;-0.30;99.90;;;;;;4747510;30;20109;-77
2022/11/21 01:35:27;;;;;;;174.02;58.40;;;0.70;99.90;;;;;;4735403;30;20040;-77
2022/11/21 01:37:55;;;;;;;183.18;61.65;;;0.90;99.90;;;;;;4733649;30;20067;-77
2022/11/21 01:40:22;;;;;;;180.00;59.97;;;0.60;99.90;;;;;;4730938;30;20091;-77
2022/11/21 01:42:57;;;;;;;188.23;62.92;;;-0.20;99.90;;;;;;4726891;30;20056;-77
2022/11/21 01:45:46;;;;;;;160.50;51.53;;;0.60;99.90;;;;;;4734093;30;20053;-77
2022/11/21 01:48:14;;;;;;;162.05;49.15;;;0.80;99.90;;;;;;4736891;30;20119;-77
2022/11/21 01:50:42;;;;;;;160.60;48.60;;;0.60;99.90;;;;;;4753078;30;20056;-77
2022/11/21 01:53:10;;;;;;;143.02;47.30;;;0.70;99.90;;;;;;4732040;30;20076;-77
2022/11/21 01:55:38;;;;;;;148.50;48.72;;;2.00;99.90;;;;;;4734223;30;20453;-77
2022/11/21 01:58:05;;;;;;;138.88;45.70;;;2.40;99.90;;;;;;4735173;30;20059;-76
2022/11/21 02:00:38;;;;;;;141.98;46.63;;;1.60;99.90;;;;;;4745903;30;20454;-77
2022/11/21 02:03:13;;;;;;;136.82;45.90;;;1.70;99.90;;;;;;4733151;30;20576;-77
2022/11/21 02:05:41;;;;;;;146.43;45.78;;;0.50;99.90;;;;;;4742123;30;20950;-77
2022/11/21 02:08:16;;;;;;;125.68;44.05;;;0.80;99.90;;;;;;4736550;30;20052;-77
2022/11/21 02:11:02;;;;;;;129.65;42.42;;;1.70;99.90;;;;;;4733999;30;20066;-77
2022/11/21 02:13:30;;;;;;;120.70;41.55;;;0.70;99.90;;;;;;4742982;30;20420;-77
2022/11/21 02:15:58;;;;;;;130.07;43.10;;;0.70;99.90;;;;;;4732572;30;20036;-77
2022/11/21 02:18:25;;;;;;;116.63;40.97;;;1.30;99.90;;;;;;4742080;30;20056;-77
2022/11/21 02:20:59;;;;;;;111.43;37.33;;;0.90;99.90;;;;;;4731179;30;20091;-77
2022/11/21 02:23:52;;;;;;;123.88;39.65;;;1.60;99.90;;;;;;4746268;30;22581;-77
2022/11/21 02:26:26;;;;;;;132.35;43.17;;;0.80;99.90;;;;;;4730836;30;20048;-77
2022/11/21 02:28:53;;;;;;;125.07;40.13;;;1.30;99.90;;;;;;4725130;30;20049;-77
2022/11/21 02:31:21;;;;;;;127.85;40.30;;;1.20;99.90;;;;;;4733541;30;20117;-77
2022/11/21 02:33:50;;;;;;;119.95;39.47;;;1.70;99.90;;;;;;4744733;30;20494;-76
2022/11/21 02:36:43;;;;;;;111.57;37.03;;;0.20;99.90;;;;;;4739964;30;20052;-77
2022/11/21 02:39:25;;;;;;;106.53;33.88;;;0.40;99.90;;;;;;4745726;30;20579;-78
2022/11/21 02:42:22;;;;;;;106.88;38.72;;;1.60;99.90;;;;;;4744193;30;20045;-77
2022/11/21 02:45:21;;;;;;;109.25;38.03;;;0.80;99.90;;;;;;4729350;30;20581;-77
2022/11/21 02:47:52;;;;;;;125.68;38.90;;;0.40;99.90;;;;;;4724797;30;20518;-76
2022/11/21 02:50:32;;;;;;;117.00;36.95;;;1.70;99.90;;;;;;4735619;30;20053;-77
2022/11/21 02:53:00;;;;;;;106.45;38.10;;;1.10;99.90;;;;;;4732762;30;20048;-77
2022/11/21 02:55:27;;;;;;;110.70;39.17;;;0.60;99.90;;;;;;4730933;30;20453;-77
2022/11/21 02:57:55;;;;;;;121.95;39.20;;;1.00;99.90;;;;;;4738971;30;20153;-77
2022/11/21 03:00:32;;;;;;;142.27;41.78;;;1.50;99.90;;;;;;4733849;30;20059;-77
2022/11/21 03:02:59;;;;;;;133.43;43.30;;;0.40;99.90;;;;;;4741738;30;20494;-77
2022/11/21 03:05:27;;;;;;;116.55;37.95;;;1.10;99.90;;;;;;4739452;30;20063;-77
2022/11/21 03:07:55;;;;;;;138.50;40.35;;;1.70;99.90;;;;;;4729599;30;20052;-76
2022/11/21 03:10:22;;;;;;;124.22;40.53;;;1.50;99.90;;;;;;4722261;30;20125;-77
2022/11/21 03:12:50;;;;;;;120.32;40.22;;;0.80;99.90;;;;;;4734872;30;20056;-77
2022/11/21 03:15:18;;;;;;;123.28;41.05;;;1.00;99.90;;;;;;4732937;30;20048;-77
2022/11/21 03:17:48;;;;;;;114.00;37.72;;;0.30;99.90;;;;;;4739785;30;20048;-77
2022/11/21 03:20:18;;;;;;;140.30;39.03;;;1.40;99.90;;;;;;4735222;30;20409;-77
2022/11/21 03:22:46;;;;;;;117.47;39.63;;;1.30;99.90;;;;;;4727327;30;20427;-77
2022/11/21 03:25:13;;;;;;;128.27;38.63;;;1.50;99.90;;;;;;4733645;30;20055;-77
2022/11/21 03:27:41;;;;;;;120.45;35.67;;;0.50;99.90;;;;;;4745036;30;20059;-77
2022/11/21 03:30:09;;;;;;;127.88;39.40;;;0.50;99.90;;;;;;4732481;30;20052;-77
2022/11/21 03:32:37;;;;;;;114.18;38.63;;;-0.10;99.90;;;;;;4735329;30;20097;-77
2022/11/21 03:35:04;;;;;;;123.93;39.47;;;1.60;99.90;;;;;;4727909;30;20083;-77
2022/11/21 03:37:32;;;;;;;127.35;37.65;;;0.30;99.90;;;;;;4719333;30;20052;-76
2022/11/21 03:39:59;;;;;;;110.97;37.35;;;1.40;99.90;;;;;;4748901;30;20595;-77
2022/11/21 03:42:27;;;;;;;118.55;37.42;;;0.80;99.90;;;;;;4739604;30;20056;-77
2022/11/21 03:44:54;;;;;;;122.82;38.33;;;1.60;99.90;;;;;;4747749;30;20063;-77
2022/11/21 03:47:23;;;;;;;118.20;38.30;;;1.00;99.90;;;;;;4748097;30;20448;-76
2022/11/21 03:49:50;;;;;;;127.65;39.10;;;1.60;99.90;;;;;;4715964;30;20475;-77
2022/11/21 03:52:18;;;;;;;126.22;39.85;;;1.00;99.90;;;;;;4742991;30;20041;-77
2022/11/21 03:54:45;;;;;;;127.28;39.65;;;2.20;99.90;;;;;;4744652;30;20060;-77
2022/11/21 03:57:13;;;;;;;115.90;38.53;;;1.00;99.90;;;;;;4730342;30;20048;-77
2022/11/21 03:59:40;;;;;;;135.18;39.65;;;2.30;99.90;;;;;;4736088;30;20063;-77
2022/11/21 04:02:08;;;;;;;121.20;40.22;;;0.40;99.90;;;;;;4736844;30;20052;-77
2022/11/21 04:04:35;;;;;;;135.25;40.80;;;1.30;99.90;;;;;;4717085;30;20183;-76
2022/11/21 04:07:02;;;;;;;131.38;38.97;;;0.40;99.90;;;;;;4733442;30;20057;-77
2022/11/21 04:09:30;;;;;;;117.85;38.10;;;-0.60;99.90;;;;;;4724170;30;20048;-77
2022/11/21 04:11:57;;;;;;;153.40;47.22;;;0.60;99.90;;;;;;4721318;30;23170;-77
2022/11/21 04:14:24;;;;;;;137.40;43.72;;;2.10;99.90;;;;;;4735336;30;20465;-77
2022/11/21 04:16:55;;;;;;;118.40;39.17;;;2.20;99.90;;;;;;4735970;30;20044;-77
2022/11/21 04:19:25;;;;;;;116.32;37.85;;;0.40;99.90;;;;;;4733212;30;20044;-77
2022/11/21 04:21:53;;;;;;;102.13;34.25;;;1.40;99.90;;;;;;4728988;30;20056;-77
2022/11/21 04:24:20;;;;;;;108.65;33.92;;;1.80;99.90;;;;;;4736794;30;20570;-77
2022/11/21 04:26:47;;;;;;;111.13;32.63;;;1.60;99.90;;;;;;4734368;30;20112;-78
2022/11/21 04:29:15;;;;;;;103.40;32.22;;;1.50;99.90;;;;;;4729787;30;20048;-77
2022/11/21 04:31:42;;;;;;;137.30;42.80;;;1.10;99.90;;;;;;4729262;30;20041;-77
2022/11/21 04:34:09;;;;;;;106.70;36.13;;;2.00;99.90;;;;;;4734119;30;20048;-77
2022/11/21 04:36:37;;;;;;;129.77;36.08;;;1.50;99.90;;;;;;4745908;30;20048;-77
2022/11/21 04:39:04;;;;;;;112.85;36.72;;;1.60;99.90;;;;;;4733066;30;20514;-78
2022/11/21 04:41:31;;;;;;;118.78;37.35;;;0.50;99.90;;;;;;4736696;30;20139;-79
2022/11/21 04:43:59;;;;;;;116.32;40.13;;;1.20;99.90;;;;;;4729588;30;20106;-77
2022/11/21 04:46:26;;;;;;;114.28;35.45;;;1.60;99.90;;;;;;4739575;30;20064;-77
2022/11/21 04:48:54;;;;;;;121.22;36.97;;;1.70;99.90;;;;;;4729564;30;20050;-79
2022/11/21 04:51:21;;;;;;;112.72;38.22;;;2.30;99.90;;;;;;4730067;30;20051;-78
2022/11/21 04:53:48;;;;;;;118.35;40.35;;;1.60;99.90;;;;;;4749828;30;20056;-78
2022/11/21 04:56:16;;;;;;;103.80;35.15;;;1.20;99.90;;;;;;4732893;30;20055;-78
2022/11/21 04:58:43;;;;;;;101.50;35.58;;;0.50;99.90;;;;;;4729070;30;21707;-78
2022/11/21 05:01:11;;;;;;;98.55;34.35;;;0.40;99.90;;;;;;4731193;30;20048;-78
2022/11/21 05:03:39;;;;;;;102.15;32.35;;;2.00;99.90;;;;;;4733288;30;20063;-78
2022/11/21 05:06:07;;;;;;;96.22;32.65;;;0.60;99.90;;;;;;4741021;30;20064;-77
2022/11/21 05:08:34;;;;;;;145.40;46.53;;;0.80;99.90;;;;;;4719404;30;20516;-77
2022/11/21 05:13:47;;;;;;;104.38;35.42;;;1.00;99.90;;;;;;4724805;30;20049;-78
2022/11/21 05:16:14;;;;;;;88.72;30.55;;;0.20;99.90;;;;;;4735173;30;20438;-78
2022/11/21 05:18:42;;;;;;;86.97;28.73;;;1.20;99.90;;;;;;4730555;30;20914;-77
2022/11/21 05:21:09;;;;;;;148.90;44.45;;;1.30;99.90;;;;;;4741619;30;20056;-78
2022/11/21 05:23:37;;;;;;;149.00;45.22;;;0.60;99.90;;;;;;4745864;30;20509;-78
2022/11/21 05:26:04;;;;;;;87.18;30.58;;;1.40;99.90;;;;;;4735454;30;20068;-78
2022/11/21 05:28:32;;;;;;;90.88;33.47;;;0.30;99.90;;;;;;4738437;30;20079;-77
2022/11/21 05:30:59;;;;;;;124.47;41.83;;;1.50;99.90;;;;;;4714093;30;20755;-77
2022/11/21 05:33:26;;;;;;;118.70;40.13;;;1.00;99.90;;;;;;4745909;30;20049;-77
2022/11/21 05:35:54;;;;;;;104.65;36.10;;;0.70;99.90;;;;;;4742716;30;20072;-77
2022/11/21 05:38:21;;;;;;;84.07;31.42;;;1.00;99.90;;;;;;4731956;30;20589;-77
2022/11/21 05:40:51;;;;;;;69.63;26.38;;;0.00;99.90;;;;;;4728855;30;20501;-78
2022/11/21 05:46:04;;;;;;;53.63;20.70;;;0.60;99.90;;;;;;4742405;30;20109;-77
2022/11/21 05:48:35;;;;;;;52.05;21.10;;;-0.10;99.90;;;;;;4740357;30;20494;-78
2022/11/21 05:51:03;;;;;;;54.92;20.65;;;1.10;99.90;;;;;;4747034;30;20440;-78
2022/11/21 05:53:31;;;;;;;57.42;21.73;;;1.30;99.90;;;;;;4744867;30;20513;-78
2022/11/21 05:56:04;;;;;;;62.08;21.33;;;1.50;99.90;;;;;;4742591;30;20036;-78
2022/11/21 05:58:32;;;;;;;57.22;22.55;;;0.00;99.90;;;;;;4739509;30;20048;-78
2022/11/21 06:01:00;;;;;;;54.45;19.35;;;1.00;99.90;;;;;;4730722;30;20772;-78
2022/11/21 06:03:31;;;;;;;55.78;21.05;;;-1.50;99.90;;;;;;4745758;30;20521;-77
2022/11/21 06:06:02;;;;;;;52.60;20.80;;;0.10;99.90;;;;;;4746229;30;20072;-77
2022/11/21 06:08:49;;;;;;;60.92;22.27;;;0.00;99.90;;;;;;4740868;30;20044;-77
2022/11/21 06:11:16;;;;;;;61.75;22.33;;;-0.20;99.90;;;;;;4715541;30;20044;-77
2022/11/21 06:13:46;;;;;;;65.53;23.55;;;0.00;99.90;;;;;;4729528;30;20068;-77
2022/11/21 06:16:17;;;;;;;64.57;23.33;;;-0.40;99.90;;;;;;4730071;30;20037;-77
2022/11/21 06:18:46;;;;;;;91.53;28.30;;;0.90;99.90;;;;;;4742476;30;20050;-77
2022/11/21 06:21:15;;;;;;;77.32;27.17;;;0.10;99.90;;;;;;4738815;30;20068;-77
2022/11/21 06:23:42;;;;;;;75.75;26.60;;;0.70;99.90;;;;;;4742438;30;20419;-78
2022/11/21 06:26:15;;;;;;;68.60;24.98;;;-0.10;99.90;;;;;;4726348;30;20133;-78
2022/11/21 06:28:43;;;;;;;;;;;1.20;99.90;;;;;;4733285;30;20044;-77
2022/11/21 06:31:13;;;;;;;85.95;26.75;;;-0.30;99.90;;;;;;4731792;30;20387;-77
2022/11/21 06:33:41;;;;;;;69.40;24.70;;;0.00;99.90;;;;;;4727333;30;20041;-78
2022/11/21 06:36:14;;;;;;;65.03;22.42;;;1.70;99.90;;;;;;4729556;30;20049;-78
2022/11/21 06:38:43;;;;;;;69.05;22.60;;;0.80;99.90;;;;;;4719091;30;20055;-78
2022/11/21 06:41:11;;;;;;;73.15;23.13;;;1.00;99.90;;;;;;4739076;30;20048;-78
2022/11/21 06:43:42;;;;;;;73.10;25.75;;;-0.20;99.90;;;;;;4733142;30;20145;-77
2022/11/21 06:46:10;;;;;;;59.92;20.80;;;0.90;99.90;;;;;;4744686;30;20112;-77
2022/11/21 06:48:38;;;;;;;50.30;19.80;;;-0.20;99.90;;;;;;4734102;30;20076;-78
2022/11/21 06:51:16;;;;;;;55.92;18.38;;;0.10;99.90;;;;;;4732510;30;20053;-78
2022/11/21 06:53:44;;;;;;;73.78;23.88;;;0.10;99.90;;;;;;4731894;30;20147;-78
2022/11/21 06:56:11;;;;;;;73.40;23.92;;;0.00;99.90;;;;;;4736016;30;20670;-77
2022/11/21 06:58:39;;;;;;;88.60;29.13;;;-0.30;99.90;;;;;;4719606;30;20060;-79
2022/11/21 07:01:08;;;;;;;84.88;27.25;;;1.10;99.90;;;;;;4729735;30;20048;-78
2022/11/21 07:03:37;;;;;;;81.70;25.48;;;1.40;99.90;;;;;;4727455;30;20061;-79
2022/11/21 07:06:19;;;;;;;;;;;0.20;99.90;;;;;;4766408;29;20052;-80
2022/11/21 07:08:50;;;;;;;57.55;20.00;;;0.20;99.90;;;;;;4755569;30;20177;-79
2022/11/21 07:11:38;;;;;;;46.83;16.75;;;0.10;99.90;;;;;;4753137;30;20388;-79
2022/11/21 07:14:05;;;;;;;66.18;20.58;;;0.20;99.90;;;;;;4760313;30;20048;-80
2022/11/21 07:16:35;;;;;;;55.45;20.83;;;0.10;99.90;;;;;;4756459;30;20040;-80
2022/11/21 07:19:03;;;;;;;52.22;19.73;;;0.30;99.90;;;;;;4758716;30;20048;-80
2022/11/21 07:21:30;;;;;;;55.15;19.27;;;0.10;99.90;;;;;;4752279;30;20059;-80
2022/11/21 07:23:57;;;;;;;57.30;19.45;;;0.30;99.90;;;;;;4729379;30;20083;-80
2022/11/21 07:26:25;;;;;;;52.60;18.55;;;1.50;99.90;;;;;;4741672;30;20072;-80
2022/11/21 09:07:08;;;;;;;42.42;14.45;;;1.80;99.90;;;;;;4796906;29;20063;-79
2022/11/21 09:09:37;;;;;;;46.17;15.02;;;2.80;99.90;;;;;;4793487;29;20054;-79
2022/11/21 09:12:05;;;;;;;47.13;17.08;;;1.70;99.90;;;;;;4778788;29;20110;-79
2022/11/21 09:20:09;;;;;;;45.75;18.60;;;2.00;99.90;;;;;;4790022;29;20080;-79
2022/11/21 09:22:36;;;;;;;42.83;17.13;;;2.20;99.90;;;;;;4767410;30;20043;-79
2022/11/21 09:25:04;;;;;;;45.13;15.95;;;3.60;99.90;;;;;;4773341;30;20047;-79
2022/11/21 09:27:32;;;;;;;40.17;13.93;;;2.30;99.90;;;;;;4757681;29;20057;-79
2022/11/21 09:30:00;;;;;;;47.45;17.70;;;2.40;99.90;;;;;;4769113;30;20166;-79
2022/11/21 09:32:27;;;;;;;42.72;15.63;;;1.90;99.90;;;;;;4769829;29;20050;-79
2022/11/21 09:34:55;;;;;;;37.33;14.65;;;2.30;99.90;;;;;;4769261;30;20058;-79
2022/11/21 09:37:25;;;;;;;41.38;15.88;;;2.30;99.90;;;;;;4766486;30;20143;-79
2022/11/21 09:39:52;;;;;;;43.17;17.63;;;2.90;99.90;;;;;;4753930;30;20058;-79
2022/11/21 09:42:38;;;;;;;55.97;23.85;;;3.30;99.90;;;;;;4761058;30;20051;-79
2022/11/21 09:45:18;;;;;;;38.75;16.58;;;2.40;99.90;;;;;;4764941;29;20536;-79
2022/11/21 09:47:50;;;;;;;38.28;13.98;;;2.40;99.90;;;;;;4764261;30;20067;-79
2022/11/21 09:50:21;;;;;;;36.90;14.68;;;2.40;99.90;;;;;;4763328;30;20416;-79
2022/11/21 09:53:21;;;;;;;37.83;14.57;;;2.60;99.90;;;;;;4767775;30;20170;-79
2022/11/21 09:55:56;;;;;;;45.20;17.23;;;2.50;99.90;;;;;;4750877;29;20124;-78
2022/11/21 09:58:30;;;;;;;45.97;23.02;;;4.10;99.90;;;;;;4765692;30;20496;-78
2022/11/21 10:00:58;;;;;;;41.22;16.73;;;2.50;99.90;;;;;;4762817;30;20059;-78
2022/11/21 10:03:40;;;;;;;47.92;21.67;;;3.90;99.90;;;;;;4746973;29;20063;-78
2022/11/21 10:06:21;;;;;;;52.67;25.03;;;2.60;99.90;;;;;;4782486;29;20106;-78
2022/11/21 10:09:43;;;;;;;51.30;23.20;;;2.70;99.90;;;;;;4766789;30;20398;-78
2022/11/21 10:15:07;;;;;;;47.30;19.38;;;2.60;99.90;;;;;;4764550;30;20055;-78
2022/11/21 10:17:42;;;;;;;41.22;16.70;;;2.70;99.90;;;;;;4763582;29;20079;-78
2022/11/21 10:20:32;;;;;;;45.90;19.02;;;3.00;99.90;;;;;;4763826;29;20051;-78
2022/11/21 10:23:26;;;;;;;45.45;19.13;;;3.30;99.90;;;;;;4767362;30;20083;-78
2022/11/21 10:26:23;;;;;;;72.75;31.38;;;3.00;99.90;;;;;;4753836;30;20058;-79
2022/11/21 10:29:00;;;;;;;51.08;22.42;;;3.00;99.90;;;;;;4731507;30;20051;-79
2022/11/21 10:31:34;;;;;;;50.97;20.58;;;3.00;99.90;;;;;;4760865;29;20059;-79
2022/11/21 10:34:09;;;;;;;49.65;18.75;;;3.10;99.90;;;;;;4753559;30;20062;-79
2022/11/21 10:36:40;;;;;;;48.53;17.52;;;3.00;99.90;;;;;;4748467;30;20062;-78
2022/11/21 10:39:36;;;;;;;47.30;18.35;;;3.00;99.90;;;;;;4752006;30;20051;-78
2022/11/21 10:42:33;;;;;;;66.28;22.85;;;3.50;99.90;;;;;;4754214;29;20986;-78
2022/11/21 10:45:17;;;;;;;84.50;35.25;;;3.20;99.90;;;;;;4770671;29;20063;-78
2022/11/21 10:47:48;;;;;;;50.88;18.75;;;3.00;99.90;;;;;;4751709;29;20067;-78
2022/11/21 10:50:40;;;;;;;51.08;18.30;;;3.20;99.90;;;;;;4759631;30;20490;-78
2022/11/21 10:56:13;;;;;;;64.15;20.52;;;3.30;99.90;;;;;;4764032;29;20055;-78
2022/11/21 10:58:43;;;;;;;55.37;20.10;;;3.20;99.90;;;;;;4763656;29;21049;-78
2022/11/21 11:01:29;;;;;;;55.53;19.98;;;3.90;99.90;;;;;;4761513;30;20331;-78
2022/11/21 11:04:17;;;;;;;51.72;18.98;;;3.40;99.90;;;;;;4766439;29;20146;-78
2022/11/21 11:07:29;;;;;;;55.33;21.58;;;3.40;99.90;;;;;;4754331;29;20059;-78
2022/11/21 11:10:22;;;;;;;60.22;21.33;;;3.50;99.90;;;;;;4782504;29;20376;-78
2022/11/21 11:16:10;;;;;;;68.70;22.30;;;3.40;99.90;;;;;;4774590;29;20039;-78
2022/11/21 11:18:45;;;;;;;66.47;21.63;;;3.40;99.90;;;;;;4761839;30;20492;-78
2022/11/21 11:21:18;;;;;;;62.17;21.70;;;2.90;99.90;;;;;;4755858;29;20051;-78
2022/11/21 11:23:47;;;;;;;61.22;23.13;;;3.50;99.90;;;;;;4763793;30;20066;-78
2022/11/21 11:26:28;;;;;;;78.00;27.17;;;4.00;99.90;;;;;;4778518;29;20043;-78
2022/11/21 11:29:13;;;;;;;73.95;28.02;;;3.50;99.90;;;;;;4761785;29;20051;-78
2022/11/21 11:31:53;;;;;;;78.13;28.13;;;2.90;99.90;;;;;;4765284;30;20055;-78
2022/11/21 11:34:22;;;;;;;78.45;29.30;;;3.10;99.90;;;;;;4748008;30;20504;-78
2022/11/21 11:36:52;;;;;;;74.38;28.55;;;3.50;99.90;;;;;;4770717;30;20059;-78
2022/11/21 11:39:40;;;;;;;77.22;28.90;;;3.40;99.90;;;;;;4766743;30;20042;-78
2022/11/21 11:48:38;;;;;;;68.90;25.35;;;3.40;99.90;;;;;;4782024;29;20055;-78
2022/11/21 11:51:39;;;;;;;70.20;27.05;;;3.40;99.90;;;;;;4778820;29;20637;-78
2022/11/21 11:54:17;;;;;;;77.05;28.60;;;3.50;99.90;;;;;;4770150;30;20052;-78
2022/11/21 11:56:46;;;;;;;73.00;26.42;;;3.50;99.90;;;;;;4768413;29;20051;-78
2022/11/21 11:59:50;;;;;;;67.75;26.13;;;3.60;99.90;;;;;;4769749;30;20058;-78
2022/11/21 12:02:25;;;;;;;67.40;25.60;;;3.60;99.90;;;;;;4765189;29;20051;-78
2022/11/21 12:05:06;;;;;;;64.57;22.85;;;3.70;99.90;;;;;;4768835;29;20054;-78
2022/11/21 12:07:39;;;;;;;62.60;22.77;;;4.00;99.90;;;;;;4771532;30;20070;-78
2022/11/21 12:12:05;;;;;;;59.85;21.70;;;4.60;99.90;;;;;;4786741;30;20050;-79
2022/11/21 12:13:30;;;;;;;61.85;22.20;;;3.70;99.90;;;;;;4761440;30;20134;-78
2022/11/21 12:16:03;;;;;;;59.67;22.27;;;5.60;99.90;;;;;;4768483;29;20427;-79
2022/11/21 12:18:46;;;;;;;60.75;22.65;;;4.00;99.90;;;;;;4767645;30;20051;-79
2022/11/21 12:21:19;;;;;;;55.85;21.10;;;4.10;99.90;;;;;;4752840;30;20060;-79
2022/11/21 12:24:08;;;;;;;54.67;20.05;;;4.00;99.90;;;;;;4755907;30;20070;-79
2022/11/21 12:26:44;;;;;;;55.30;21.58;;;4.00;99.90;;;;;;4768953;30;20122;-79
2022/11/21 12:29:23;;;;;;;52.60;19.42;;;3.80;99.90;;;;;;4769143;29;20051;-78
2022/11/21 12:32:15;;;;;;;51.60;20.17;;;4.10;99.90;;;;;;4768292;29;20830;-78
2022/11/21 12:34:53;;;;;;;46.13;18.52;;;4.10;99.90;;;;;;4767907;30;20062;-78
2022/11/21 12:37:32;;;;;;;48.55;20.30;;;4.10;99.90;;;;;;4785821;29;20039;-78
2022/11/21 12:40:08;;;;;;;51.85;19.35;;;4.00;99.90;;;;;;4767242;30;20065;-78
2022/11/21 12:43:06;;;;;;;43.45;16.52;;;4.10;99.90;;;;;;4763902;29;20064;-78
2022/11/21 12:46:08;;;;;;;40.03;16.80;;;4.10;99.90;;;;;;4764390;30;20091;-78
2022/11/21 12:55:39;;;;;;;45.90;19.77;;;4.60;99.90;;;;;;4779279;29;20069;-78
2022/11/21 12:58:25;;;;;;;40.00;16.10;;;4.50;99.90;;;;;;4763372;30;20187;-78
2022/11/21 13:01:01;;;;;;;33.13;15.15;;;4.50;99.90;;;;;;4748779;30;20091;-78
2022/11/21 13:03:34;;;;;;;43.33;18.05;;;4.50;99.90;;;;;;4780759;29;20055;-78
2022/11/21 13:06:04;;;;;;;51.60;22.42;;;4.50;99.90;;;;;;4767047;30;20059;-78
2022/11/21 13:08:35;;;;;;;39.78;15.93;;;4.70;99.90;;;;;;4766417;30;20563;-78
2022/11/21 13:14:11;;;;;;;48.17;18.17;;;4.50;99.90;;;;;;4780834;30;20068;-78
2022/11/21 13:16:45;;;;;;;53.03;20.63;;;4.40;99.90;;;;;;4767614;30;20415;-78
2022/11/21 13:19:41;;;;;;;58.75;23.65;;;4.60;99.90;;;;;;4769017;30;20055;-78
2022/11/21 13:22:36;;;;;;;109.38;40.38;;;4.70;99.90;;;;;;4783495;29;20138;-78
2022/11/21 13:25:25;;;;;;;45.30;19.05;;;4.60;99.90;;;;;;4753205;30;20062;-78
2022/11/21 13:27:53;;;;;;;63.00;25.92;;;4.60;99.90;;;;;;4766314;29;20108;-78
2022/11/21 13:30:23;;;;;;;42.22;18.13;;;4.10;99.90;;;;;;4768187;30;20043;-78
2022/11/21 13:32:54;;;;;;;82.93;35.22;;;4.50;99.90;;;;;;4758068;29;20061;-77
2022/11/21 13:35:21;;;;;;;27.42;12.27;;;4.80;99.90;;;;;;4755364;30;20093;-77
2022/11/21 13:37:49;;;;;;;29.52;11.60;;;4.70;99.90;;;;;;4751223;30;20051;-78
2022/11/21 13:40:25;;;;;;;29.40;12.25;;;4.70;99.90;;;;;;4767330;29;20051;-78
2022/11/21 13:43:15;;;;;;;25.48;11.63;;;4.40;99.90;;;;;;4753078;30;20058;-78
2022/11/21 13:46:00;;;;;;;25.15;10.70;;;4.70;99.90;;;;;;4772051;29;20114;-78
2022/11/21 13:48:30;;;;;;;15.38;6.88;;;4.70;99.90;;;;;;4754533;30;20108;-78
2022/11/21 13:51:19;;;;;;;16.90;7.32;;;4.80;99.90;;;;;;4771494;29;20078;-77
2022/11/21 13:54:24;;;;;;;15.80;7.10;;;4.70;99.90;;;;;;4748806;30;20052;-77
2022/11/21 13:57:11;;;;;;;20.35;11.20;;;4.70;99.90;;;;;;4764593;30;20082;-78
2022/11/21 14:00:05;;;;;;;27.23;14.48;;;4.40;99.90;;;;;;4764066;29;20104;-77
2022/11/21 14:03:17;;;;;;;21.10;10.63;;;4.60;99.90;;;;;;4753533;29;20061;-78
2022/11/21 14:06:06;;;;;;;25.25;13.25;;;4.30;99.90;;;;;;4702368;30;20072;-78
2022/11/21 14:08:34;;;;;;;31.00;16.92;;;4.40;99.90;;;;;;4754108;30;20050;-79
2022/11/21 14:11:35;;;;;;;24.25;13.32;;;4.30;99.90;;;;;;4753949;30;20048;-78
2022/11/21 14:14:03;;;;;;;23.05;10.52;;;4.30;99.90;;;;;;4749777;30;20060;-78
2022/11/21 14:16:34;;;;;;;29.92;14.63;;;4.30;99.90;;;;;;4750462;30;21384;-78
2022/11/21 14:19:02;;;;;;;73.82;29.67;;;3.10;99.90;;;;;;4764351;30;20101;-78
2022/11/21 14:21:31;;;;;;;37.85;16.38;;;4.30;99.90;;;;;;4751380;30;20059;-78
2022/11/21 14:24:12;;;;;;;39.90;15.68;;;4.20;99.90;;;;;;4754716;30;20062;-78
2022/11/21 14:26:46;;;;;;;88.65;37.60;;;4.20;99.90;;;;;;4742985;30;20127;-79
2022/11/21 14:29:25;;;;;;;154.60;63.92;;;4.20;99.90;;;;;;4738722;30;20047;-79
2022/11/21 14:31:53;;;;;;;74.35;34.20;;;4.20;99.90;;;;;;4752520;30;21673;-78
2022/11/21 14:34:29;;;;;;;28.45;14.18;;;4.10;99.90;;;;;;4768627;30;20040;-78
2022/11/21 14:37:00;;;;;;;73.93;40.47;;;4.10;99.90;;;;;;4768387;30;20052;-78
2022/11/21 14:39:30;;;;;;;38.83;20.70;;;4.40;99.90;;;;;;4753156;30;20109;-78
2022/11/21 14:42:13;;;;;;;22.45;11.20;;;4.20;99.90;;;;;;4750891;30;20056;-78
2022/11/21 14:44:42;;;;;;;24.77;11.52;;;4.00;99.90;;;;;;4768361;30;20385;-78
2022/11/21 14:47:19;;;;;;;27.67;13.48;;;3.80;99.90;;;;;;4727929;30;21823;-79
2022/11/21 14:49:54;;;;;;;57.13;23.10;;;4.10;99.90;;;;;;4748490;30;20044;-79
2022/11/21 14:52:31;;;;;;;35.80;15.57;;;4.10;99.90;;;;;;4745873;30;20083;-79
2022/11/21 14:55:01;;;;;;;33.13;14.52;;;4.00;99.90;;;;;;4747494;30;20058;-78
2022/11/21 14:57:49;;;;;;;27.70;11.38;;;4.10;99.90;;;;;;4764592;30;20067;-78
2022/11/21 15:00:21;;;;;;;27.30;11.38;;;5.20;99.90;;;;;;4746294;30;20056;-78
2022/11/21 15:03:20;;;;;;;28.45;12.68;;;4.00;99.90;;;;;;4751484;30;20059;-78
2022/11/21 15:05:59;;;;;;;42.70;17.42;;;4.00;99.90;;;;;;4755373;29;20055;-78
2022/11/21 15:08:33;;;;;;;50.88;24.63;;;4.10;99.90;;;;;;4752242;30;20055;-78
2022/11/21 15:11:24;;;;;;;111.60;46.47;;;4.20;99.90;;;;;;4740581;30;20659;-78
2022/11/21 15:13:57;;;;;;;151.68;61.88;;;3.90;99.90;;;;;;4753844;30;20051;-78
2022/11/21 15:16:42;;;;;;;60.15;29.60;;;4.10;99.90;;;;;;4754093;30;20118;-78
2022/11/21 15:19:10;;;;;;;35.92;15.98;;;4.00;99.90;;;;;;4744940;30;20047;-77
2022/11/21 15:21:44;;;;;;;50.97;24.35;;;4.00;99.90;;;;;;4754472;30;20415;-77